sensor_id;sensor_type;location;lat;lon;timestamp;temperature;humidity
56184;DHT22;42086;53.170;6.980;2022-10-22T00:02:18;12.90;99.90
56184;DHT22;42086;53.170;6.980;2022-10-22T00:04:48;12.90;99.90
56184;DHT22;42086;53.170;6.980;2022-10-22T00:07:14;12.90;99.90
56184;DHT22;42086;53.170;6.980;2022-10-22T00:09:40;12.80;99.90
56184;DHT22;42086;53.170;6.980;2022-10-22T00:12:06;12.70;99.90
56184;DHT22;42086;53.170;6.980;2022-10-22T00:14:31;12.60;99.90
56184;DHT22;42086;53.170;6.980;2022-10-22T00:16:57;12.50;99.90
56184;DHT22;42086;53.170;6.980;2022-10-22T00:19:26;12.40;99.90
56184;DHT22;42086;53.170;6.980;2022-10-22T00:21:52;12.40;99.90
56184;DHT22;42086;53.170;6.980;2022-10-22T00:24:18;12.40;99.90
56184;DHT22;42086;53.170;6.980;2022-10-22T00:26:43;12.50;99.90
56184;DHT22;42086;53.170;6.980;2022-10-22T00:29:09;12.40;99.90
56184;DHT22;42086;53.170;6.980;2022-10-22T00:31:35;12.40;99.90
56184;DHT22;42086;53.170;6.980;2022-10-22T00:34:01;12.30;99.90
56184;DHT22;42086;53.170;6.980;2022-10-22T00:36:26;12.10;99.90
56184;DHT22;42086;53.170;6.980;2022-10-22T00:38:52;12.00;99.90
56184;DHT22;42086;53.170;6.980;2022-10-22T00:41:18;12.00;99.90
56184;DHT22;42086;53.170;6.980;2022-10-22T00:43:59;12.00;99.90
56184;DHT22;42086;53.170;6.980;2022-10-22T00:46:26;11.90;99.90
56184;DHT22;42086;53.170;6.980;2022-10-22T00:48:52;11.80;99.90
56184;DHT22;42086;53.170;6.980;2022-10-22T00:51:20;11.80;99.90
56184;DHT22;42086;53.170;6.980;2022-10-22T00:53:48;11.90;99.90
56184;DHT22;42086;53.170;6.980;2022-10-22T00:56:16;12.00;99.90
56184;DHT22;42086;53.170;6.980;2022-10-22T00:58:45;12.10;99.90
56184;DHT22;42086;53.170;6.980;2022-10-22T01:01:16;12.20;99.90
56184;DHT22;42086;53.170;6.980;2022-10-22T01:03:42;12.20;99.90
56184;DHT22;42086;53.170;6.980;2022-10-22T01:06:12;12.20;99.90
56184;DHT22;42086;53.170;6.980;2022-10-22T01:08:52;12.20;99.90
56184;DHT22;42086;53.170;6.980;2022-10-22T01:15:14;12.30;99.90
56184;DHT22;42086;53.170;6.980;2022-10-22T01:17:58;12.30;99.90
56184;DHT22;42086;53.170;6.980;2022-10-22T01:26:03;12.30;99.90
56184;DHT22;42086;53.170;6.980;2022-10-22T01:31:33;12.30;99.90
56184;DHT22;42086;53.170;6.980;2022-10-22T01:34:01;12.30;99.90
56184;DHT22;42086;53.170;6.980;2022-10-22T01:36:30;12.30;99.90
56184;DHT22;42086;53.170;6.980;2022-10-22T01:38:58;12.40;99.90
56184;DHT22;42086;53.170;6.980;2022-10-22T01:41:29;12.40;99.90
56184;DHT22;42086;53.170;6.980;2022-10-22T01:43:55;12.30;99.90
56184;DHT22;42086;53.170;6.980;2022-10-22T01:46:23;12.30;99.90
56184;DHT22;42086;53.170;6.980;2022-10-22T02:00:29;12.20;99.90
56184;DHT22;42086;53.170;6.980;2022-10-22T02:03:05;12.20;99.90
56184;DHT22;42086;53.170;6.980;2022-10-22T02:05:36;12.20;99.90
56184;DHT22;42086;53.170;6.980;2022-10-22T02:08:13;12.20;99.90
56184;DHT22;42086;53.170;6.980;2022-10-22T02:10:42;12.10;99.90
56184;DHT22;42086;53.170;6.980;2022-10-22T02:13:12;12.10;99.90
56184;DHT22;42086;53.170;6.980;2022-10-22T02:15:39;12.20;99.90
56184;DHT22;42086;53.170;6.980;2022-10-22T02:18:07;12.20;99.90
56184;DHT22;42086;53.170;6.980;2022-10-22T02:20:35;12.10;99.90
56184;DHT22;42086;53.170;6.980;2022-10-22T02:23:02;11.90;99.90
56184;DHT22;42086;53.170;6.980;2022-10-22T02:25:31;11.90;99.90
56184;DHT22;42086;53.170;6.980;2022-10-22T02:28:28;12.10;99.90
56184;DHT22;42086;53.170;6.980;2022-10-22T02:31:00;12.10;99.90
56184;DHT22;42086;53.170;6.980;2022-10-22T02:33:29;12.10;99.90
56184;DHT22;42086;53.170;6.980;2022-10-22T02:35:58;12.10;99.90
56184;DHT22;42086;53.170;6.980;2022-10-22T02:38:25;12.10;99.90
56184;DHT22;42086;53.170;6.980;2022-10-22T02:40:51;11.90;99.90
56184;DHT22;42086;53.170;6.980;2022-10-22T02:43:18;11.80;99.90
56184;DHT22;42086;53.170;6.980;2022-10-22T02:45:44;11.70;99.90
56184;DHT22;42086;53.170;6.980;2022-10-22T02:48:10;11.70;99.90
56184;DHT22;42086;53.170;6.980;2022-10-22T02:50:36;11.60;99.90
56184;DHT22;42086;53.170;6.980;2022-10-22T02:53:02;11.50;99.90
56184;DHT22;42086;53.170;6.980;2022-10-22T02:55:28;11.50;99.90
56184;DHT22;42086;53.170;6.980;2022-10-22T02:57:53;11.60;99.90
56184;DHT22;42086;53.170;6.980;2022-10-22T03:00:19;11.60;99.90
56184;DHT22;42086;53.170;6.980;2022-10-22T03:02:45;11.70;99.90
56184;DHT22;42086;53.170;6.980;2022-10-22T03:05:11;11.80;99.90
56184;DHT22;42086;53.170;6.980;2022-10-22T03:07:37;11.90;99.90
56184;DHT22;42086;53.170;6.980;2022-10-22T03:10:03;12.00;99.90
56184;DHT22;42086;53.170;6.980;2022-10-22T03:12:29;12.10;99.90
56184;DHT22;42086;53.170;6.980;2022-10-22T03:14:55;12.00;99.90
56184;DHT22;42086;53.170;6.980;2022-10-22T03:17:20;11.90;99.90
56184;DHT22;42086;53.170;6.980;2022-10-22T03:19:46;11.80;99.90
56184;DHT22;42086;53.170;6.980;2022-10-22T03:22:20;11.80;99.90
56184;DHT22;42086;53.170;6.980;2022-10-22T03:24:50;11.90;99.90
56184;DHT22;42086;53.170;6.980;2022-10-22T03:27:19;11.90;99.90
56184;DHT22;42086;53.170;6.980;2022-10-22T03:29:46;12.00;99.90
56184;DHT22;42086;53.170;6.980;2022-10-22T03:32:13;12.00;99.90
56184;DHT22;42086;53.170;6.980;2022-10-22T03:34:39;12.00;99.90
56184;DHT22;42086;53.170;6.980;2022-10-22T03:37:05;11.90;99.90
56184;DHT22;42086;53.170;6.980;2022-10-22T03:39:32;12.00;99.90
56184;DHT22;42086;53.170;6.980;2022-10-22T03:41:59;12.00;99.90
56184;DHT22;42086;53.170;6.980;2022-10-22T03:44:25;12.00;99.90
56184;DHT22;42086;53.170;6.980;2022-10-22T03:46:52;12.00;99.90
56184;DHT22;42086;53.170;6.980;2022-10-22T03:49:17;12.00;99.90
56184;DHT22;42086;53.170;6.980;2022-10-22T03:51:43;12.10;99.90
56184;DHT22;42086;53.170;6.980;2022-10-22T03:54:09;12.00;99.90
56184;DHT22;42086;53.170;6.980;2022-10-22T03:56:34;12.00;99.90
56184;DHT22;42086;53.170;6.980;2022-10-22T03:59:01;12.10;99.90
56184;DHT22;42086;53.170;6.980;2022-10-22T04:01:28;12.10;99.90
56184;DHT22;42086;53.170;6.980;2022-10-22T04:03:54;12.10;99.90
56184;DHT22;42086;53.170;6.980;2022-10-22T04:06:20;12.10;99.90
56184;DHT22;42086;53.170;6.980;2022-10-22T04:08:47;12.10;99.90
56184;DHT22;42086;53.170;6.980;2022-10-22T04:11:13;12.10;99.90
56184;DHT22;42086;53.170;6.980;2022-10-22T04:13:40;12.10;99.90
56184;DHT22;42086;53.170;6.980;2022-10-22T04:16:13;12.10;99.90
56184;DHT22;42086;53.170;6.980;2022-10-22T04:18:40;12.10;99.90
56184;DHT22;42086;53.170;6.980;2022-10-22T04:21:07;12.10;99.90
56184;DHT22;42086;53.170;6.980;2022-10-22T04:23:33;12.00;99.90
56184;DHT22;42086;53.170;6.980;2022-10-22T04:26:03;12.00;99.90
56184;DHT22;42086;53.170;6.980;2022-10-22T04:28:29;12.00;99.90
56184;DHT22;42086;53.170;6.980;2022-10-22T04:30:55;12.00;99.90
56184;DHT22;42086;53.170;6.980;2022-10-22T04:33:20;12.10;99.90
56184;DHT22;42086;53.170;6.980;2022-10-22T04:35:46;12.10;99.90
56184;DHT22;42086;53.170;6.980;2022-10-22T04:38:12;12.10;99.90
56184;DHT22;42086;53.170;6.980;2022-10-22T04:40:38;12.20;99.90
56184;DHT22;42086;53.170;6.980;2022-10-22T04:43:04;12.10;99.90
56184;DHT22;42086;53.170;6.980;2022-10-22T04:45:31;12.10;99.90
56184;DHT22;42086;53.170;6.980;2022-10-22T04:47:57;12.10;99.90
56184;DHT22;42086;53.170;6.980;2022-10-22T04:50:23;12.10;99.90
56184;DHT22;42086;53.170;6.980;2022-10-22T04:52:48;12.10;99.90
56184;DHT22;42086;53.170;6.980;2022-10-22T04:55:14;12.10;99.90
56184;DHT22;42086;53.170;6.980;2022-10-22T04:57:40;12.10;99.90
56184;DHT22;42086;53.170;6.980;2022-10-22T05:00:06;12.10;99.90
56184;DHT22;42086;53.170;6.980;2022-10-22T05:02:32;12.10;99.90
56184;DHT22;42086;53.170;6.980;2022-10-22T05:04:57;12.10;99.90
56184;DHT22;42086;53.170;6.980;2022-10-22T05:07:23;12.10;99.90
56184;DHT22;42086;53.170;6.980;2022-10-22T05:09:49;12.10;99.90
56184;DHT22;42086;53.170;6.980;2022-10-22T05:12:15;12.10;99.90
56184;DHT22;42086;53.170;6.980;2022-10-22T05:14:40;12.10;99.90
56184;DHT22;42086;53.170;6.980;2022-10-22T05:17:06;12.20;99.90
56184;DHT22;42086;53.170;6.980;2022-10-22T05:19:32;12.20;99.90
56184;DHT22;42086;53.170;6.980;2022-10-22T05:22:02;12.20;99.90
56184;DHT22;42086;53.170;6.980;2022-10-22T05:24:31;12.20;99.90
56184;DHT22;42086;53.170;6.980;2022-10-22T05:26:58;12.20;99.90
56184;DHT22;42086;53.170;6.980;2022-10-22T05:29:25;12.20;99.90
56184;DHT22;42086;53.170;6.980;2022-10-22T05:31:51;12.30;99.90
56184;DHT22;42086;53.170;6.980;2022-10-22T05:34:17;12.30;99.90
56184;DHT22;42086;53.170;6.980;2022-10-22T05:36:43;12.30;99.90
56184;DHT22;42086;53.170;6.980;2022-10-22T05:39:09;12.30;99.90
56184;DHT22;42086;53.170;6.980;2022-10-22T05:41:35;12.30;99.90
56184;DHT22;42086;53.170;6.980;2022-10-22T05:44:02;12.20;99.90
56184;DHT22;42086;53.170;6.980;2022-10-22T05:46:29;12.20;99.90
56184;DHT22;42086;53.170;6.980;2022-10-22T05:48:59;12.10;99.90
56184;DHT22;42086;53.170;6.980;2022-10-22T05:51:27;12.10;99.90
56184;DHT22;42086;53.170;6.980;2022-10-22T05:53:55;12.20;99.90
56184;DHT22;42086;53.170;6.980;2022-10-22T05:56:21;12.20;99.90
56184;DHT22;42086;53.170;6.980;2022-10-22T05:58:47;12.20;99.90
56184;DHT22;42086;53.170;6.980;2022-10-22T06:03:40;12.20;99.90
56184;DHT22;42086;53.170;6.980;2022-10-22T06:09:24;12.10;99.90
56184;DHT22;42086;53.170;6.980;2022-10-22T06:11:51;12.10;99.90
56184;DHT22;42086;53.170;6.980;2022-10-22T06:14:17;12.20;99.90
56184;DHT22;42086;53.170;6.980;2022-10-22T06:16:43;12.20;99.90
56184;DHT22;42086;53.170;6.980;2022-10-22T06:19:15;12.20;99.90
56184;DHT22;42086;53.170;6.980;2022-10-22T06:21:41;12.20;99.90
56184;DHT22;42086;53.170;6.980;2022-10-22T06:24:08;12.20;99.90
56184;DHT22;42086;53.170;6.980;2022-10-22T06:26:34;12.30;99.90
56184;DHT22;42086;53.170;6.980;2022-10-22T06:29:00;12.20;99.90
56184;DHT22;42086;53.170;6.980;2022-10-22T06:31:27;12.30;99.90
56184;DHT22;42086;53.170;6.980;2022-10-22T06:33:55;12.40;99.90
56184;DHT22;42086;53.170;6.980;2022-10-22T06:36:23;12.40;99.90
56184;DHT22;42086;53.170;6.980;2022-10-22T06:38:53;12.50;99.90
56184;DHT22;42086;53.170;6.980;2022-10-22T06:41:19;12.50;99.90
56184;DHT22;42086;53.170;6.980;2022-10-22T06:43:46;12.60;99.90
56184;DHT22;42086;53.170;6.980;2022-10-22T06:46:13;12.60;99.90
56184;DHT22;42086;53.170;6.980;2022-10-22T06:48:39;12.70;99.90
56184;DHT22;42086;53.170;6.980;2022-10-22T06:51:08;12.80;99.90
56184;DHT22;42086;53.170;6.980;2022-10-22T06:53:34;12.80;99.90
56184;DHT22;42086;53.170;6.980;2022-10-22T06:56:20;12.80;99.90
56184;DHT22;42086;53.170;6.980;2022-10-22T06:58:51;12.90;99.90
56184;DHT22;42086;53.170;6.980;2022-10-22T07:01:19;12.90;99.90
56184;DHT22;42086;53.170;6.980;2022-10-22T07:03:45;12.90;99.90
56184;DHT22;42086;53.170;6.980;2022-10-22T07:06:13;13.00;99.90
56184;DHT22;42086;53.170;6.980;2022-10-22T07:08:40;13.10;99.90
56184;DHT22;42086;53.170;6.980;2022-10-22T07:11:09;13.10;99.90
56184;DHT22;42086;53.170;6.980;2022-10-22T07:13:35;13.20;99.90
56184;DHT22;42086;53.170;6.980;2022-10-22T07:16:01;13.30;99.90
56184;DHT22;42086;53.170;6.980;2022-10-22T07:18:28;13.30;99.90
56184;DHT22;42086;53.170;6.980;2022-10-22T07:20:54;13.40;99.90
56184;DHT22;42086;53.170;6.980;2022-10-22T07:23:20;13.30;99.90
56184;DHT22;42086;53.170;6.980;2022-10-22T07:25:46;13.40;99.90
56184;DHT22;42086;53.170;6.980;2022-10-22T07:28:12;13.50;99.90
56184;DHT22;42086;53.170;6.980;2022-10-22T07:30:38;12.90;99.90
56184;DHT22;42086;53.170;6.980;2022-10-22T07:33:04;13.50;99.90
56184;DHT22;42086;53.170;6.980;2022-10-22T07:35:30;13.60;99.90
56184;DHT22;42086;53.170;6.980;2022-10-22T07:37:56;13.70;99.90
56184;DHT22;42086;53.170;6.980;2022-10-22T07:40:22;13.80;99.90
56184;DHT22;42086;53.170;6.980;2022-10-22T07:42:48;13.80;99.90
56184;DHT22;42086;53.170;6.980;2022-10-22T07:45:13;13.90;99.90
56184;DHT22;42086;53.170;6.980;2022-10-22T07:47:39;14.00;99.90
56184;DHT22;42086;53.170;6.980;2022-10-22T07:50:05;14.10;99.90
56184;DHT22;42086;53.170;6.980;2022-10-22T07:52:32;14.10;99.90
56184;DHT22;42086;53.170;6.980;2022-10-22T07:54:58;14.20;99.90
56184;DHT22;42086;53.170;6.980;2022-10-22T07:57:23;14.30;99.90
56184;DHT22;42086;53.170;6.980;2022-10-22T07:59:49;14.40;99.90
56184;DHT22;42086;53.170;6.980;2022-10-22T08:02:15;14.40;99.90
56184;DHT22;42086;53.170;6.980;2022-10-22T08:04:41;14.50;99.90
56184;DHT22;42086;53.170;6.980;2022-10-22T08:07:06;14.50;99.90
56184;DHT22;42086;53.170;6.980;2022-10-22T08:09:32;14.60;99.90
56184;DHT22;42086;53.170;6.980;2022-10-22T08:11:58;14.60;99.90
56184;DHT22;42086;53.170;6.980;2022-10-22T08:14:24;14.70;99.90
56184;DHT22;42086;53.170;6.980;2022-10-22T08:16:49;14.70;99.90
56184;DHT22;42086;53.170;6.980;2022-10-22T08:19:15;14.80;99.90
56184;DHT22;42086;53.170;6.980;2022-10-22T08:21:46;14.80;99.90
56184;DHT22;42086;53.170;6.980;2022-10-22T08:24:12;14.80;99.90
56184;DHT22;42086;53.170;6.980;2022-10-22T08:26:39;14.90;99.90
56184;DHT22;42086;53.170;6.980;2022-10-22T08:29:05;14.90;99.90
56184;DHT22;42086;53.170;6.980;2022-10-22T08:31:32;15.00;99.90
56184;DHT22;42086;53.170;6.980;2022-10-22T08:33:57;15.10;99.90
56184;DHT22;42086;53.170;6.980;2022-10-22T08:36:23;15.10;99.90
56184;DHT22;42086;53.170;6.980;2022-10-22T08:38:49;15.10;99.90
56184;DHT22;42086;53.170;6.980;2022-10-22T08:41:20;15.10;99.90
56184;DHT22;42086;53.170;6.980;2022-10-22T08:44:05;15.20;99.90
56184;DHT22;42086;53.170;6.980;2022-10-22T08:46:54;15.20;99.90
56184;DHT22;42086;53.170;6.980;2022-10-22T08:49:26;15.20;99.90
56184;DHT22;42086;53.170;6.980;2022-10-22T08:51:55;15.30;99.90
56184;DHT22;42086;53.170;6.980;2022-10-22T08:54:46;15.30;99.90
56184;DHT22;42086;53.170;6.980;2022-10-22T09:08:27;15.80;99.90
56184;DHT22;42086;53.170;6.980;2022-10-22T09:13:33;16.10;99.90
56184;DHT22;42086;53.170;6.980;2022-10-22T09:16:08;16.30;99.90
56184;DHT22;42086;53.170;6.980;2022-10-22T09:18:58;16.50;99.90
56184;DHT22;42086;53.170;6.980;2022-10-22T09:21:48;16.60;99.90
56184;DHT22;42086;53.170;6.980;2022-10-22T09:24:39;16.60;99.90
56184;DHT22;42086;53.170;6.980;2022-10-22T09:27:14;16.70;99.90
56184;DHT22;42086;53.170;6.980;2022-10-22T09:29:40;16.80;99.90
56184;DHT22;42086;53.170;6.980;2022-10-22T09:32:06;16.90;99.90
56184;DHT22;42086;53.170;6.980;2022-10-22T09:34:32;17.00;99.90
56184;DHT22;42086;53.170;6.980;2022-10-22T09:37:08;16.80;99.90
56184;DHT22;42086;53.170;6.980;2022-10-22T09:39:40;16.90;99.90
56184;DHT22;42086;53.170;6.980;2022-10-22T09:45:58;17.20;99.90
56184;DHT22;42086;53.170;6.980;2022-10-22T09:48:40;17.20;99.90
56184;DHT22;42086;53.170;6.980;2022-10-22T09:53:42;17.20;99.90
56184;DHT22;42086;53.170;6.980;2022-10-22T09:56:25;17.40;99.90
56184;DHT22;42086;53.170;6.980;2022-10-22T09:58:55;17.50;99.90
56184;DHT22;42086;53.170;6.980;2022-10-22T10:01:25;17.60;99.90
56184;DHT22;42086;53.170;6.980;2022-10-22T10:03:52;17.70;99.90
56184;DHT22;42086;53.170;6.980;2022-10-22T10:06:19;17.90;99.90
56184;DHT22;42086;53.170;6.980;2022-10-22T10:08:46;17.80;99.90
56184;DHT22;42086;53.170;6.980;2022-10-22T10:14:04;17.60;99.90
56184;DHT22;42086;53.170;6.980;2022-10-22T10:16:52;17.70;99.90
56184;DHT22;42086;53.170;6.980;2022-10-22T10:33:42;17.10;99.90
56184;DHT22;42086;53.170;6.980;2022-10-22T10:36:22;17.00;99.90
56184;DHT22;42086;53.170;6.980;2022-10-22T10:39:02;17.00;99.90
56184;DHT22;42086;53.170;6.980;2022-10-22T10:50:30;17.00;99.90
56184;DHT22;42086;53.170;6.980;2022-10-22T10:53:20;16.90;99.90
56184;DHT22;42086;53.170;6.980;2022-10-22T10:58:27;17.00;99.90
56184;DHT22;42086;53.170;6.980;2022-10-22T11:00:58;17.00;99.90
56184;DHT22;42086;53.170;6.980;2022-10-22T11:03:44;16.90;99.90
56184;DHT22;42086;53.170;6.980;2022-10-22T11:06:16;16.90;99.90
56184;DHT22;42086;53.170;6.980;2022-10-22T11:08:49;16.90;99.90
56184;DHT22;42086;53.170;6.980;2022-10-22T11:14:12;16.90;99.90
56184;DHT22;42086;53.170;6.980;2022-10-22T11:22:10;17.00;99.90
56184;DHT22;42086;53.170;6.980;2022-10-22T11:24:45;16.90;99.90
56184;DHT22;42086;53.170;6.980;2022-10-22T11:27:24;16.90;99.90
56184;DHT22;42086;53.170;6.980;2022-10-22T11:29:57;16.80;99.90
56184;DHT22;42086;53.170;6.980;2022-10-22T11:32:24;16.80;99.90
56184;DHT22;42086;53.170;6.980;2022-10-22T11:34:57;16.70;99.90
56184;DHT22;42086;53.170;6.980;2022-10-22T11:37:25;16.70;99.90
56184;DHT22;42086;53.170;6.980;2022-10-22T11:39:57;16.70;99.90
56184;DHT22;42086;53.170;6.980;2022-10-22T11:45:39;16.70;99.90
56184;DHT22;42086;53.170;6.980;2022-10-22T12:06:05;16.30;99.90
56184;DHT22;42086;53.170;6.980;2022-10-22T12:14:32;16.30;99.90
56184;DHT22;42086;53.170;6.980;2022-10-22T12:17:11;16.40;99.90
56184;DHT22;42086;53.170;6.980;2022-10-22T12:19:46;16.50;99.90
56184;DHT22;42086;53.170;6.980;2022-10-22T12:24:46;16.60;99.90
56184;DHT22;42086;53.170;6.980;2022-10-22T12:27:34;16.60;99.90
56184;DHT22;42086;53.170;6.980;2022-10-22T12:30:16;16.60;99.90
56184;DHT22;42086;53.170;6.980;2022-10-22T12:32:42;16.60;99.90
56184;DHT22;42086;53.170;6.980;2022-10-22T12:35:15;16.60;99.90
56184;DHT22;42086;53.170;6.980;2022-10-22T12:37:41;16.60;99.90
56184;DHT22;42086;53.170;6.980;2022-10-22T12:40:21;16.60;99.90
56184;DHT22;42086;53.170;6.980;2022-10-22T12:42:53;16.60;99.90
56184;DHT22;42086;53.170;6.980;2022-10-22T12:45:20;16.60;99.90
56184;DHT22;42086;53.170;6.980;2022-10-22T12:47:47;16.50;99.90
56184;DHT22;42086;53.170;6.980;2022-10-22T12:53:33;16.30;99.90
56184;DHT22;42086;53.170;6.980;2022-10-22T12:56:05;16.20;99.90
56184;DHT22;42086;53.170;6.980;2022-10-22T12:58:40;16.00;99.90
56184;DHT22;42086;53.170;6.980;2022-10-22T13:01:06;16.00;99.90
56184;DHT22;42086;53.170;6.980;2022-10-22T13:03:40;16.00;99.90
56184;DHT22;42086;53.170;6.980;2022-10-22T13:08:38;16.00;99.90
56184;DHT22;42086;53.170;6.980;2022-10-22T13:11:09;16.00;99.90
56184;DHT22;42086;53.170;6.980;2022-10-22T13:16:21;16.20;99.90
56184;DHT22;42086;53.170;6.980;2022-10-22T13:18:49;16.50;99.90
56184;DHT22;42086;53.170;6.980;2022-10-22T13:23:56;17.10;99.90
56184;DHT22;42086;53.170;6.980;2022-10-22T13:26:29;17.80;99.90
56184;DHT22;42086;53.170;6.980;2022-10-22T13:28:56;18.20;99.90
56184;DHT22;42086;53.170;6.980;2022-10-22T13:31:32;18.90;99.90
56184;DHT22;42086;53.170;6.980;2022-10-22T13:34:03;19.20;99.90
56184;DHT22;42086;53.170;6.980;2022-10-22T13:36:31;19.30;99.90
56184;DHT22;42086;53.170;6.980;2022-10-22T13:38:57;19.50;99.90
56184;DHT22;42086;53.170;6.980;2022-10-22T13:41:28;19.10;99.90
56184;DHT22;42086;53.170;6.980;2022-10-22T13:43:55;19.30;99.90
56184;DHT22;42086;53.170;6.980;2022-10-22T13:46:22;19.40;99.90
56184;DHT22;42086;53.170;6.980;2022-10-22T14:41:54;19.90;99.90
56184;DHT22;42086;53.170;6.980;2022-10-22T14:56:18;17.30;99.90
56184;DHT22;42086;53.170;6.980;2022-10-22T14:58:47;17.30;99.90
56184;DHT22;42086;53.170;6.980;2022-10-22T15:01:13;17.10;99.90
56184;DHT22;42086;53.170;6.980;2022-10-22T15:03:39;17.10;99.90
56184;DHT22;42086;53.170;6.980;2022-10-22T15:06:05;17.00;99.90
56184;DHT22;42086;53.170;6.980;2022-10-22T15:08:31;17.00;99.90
56184;DHT22;42086;53.170;6.980;2022-10-22T15:11:03;17.00;99.90
56184;DHT22;42086;53.170;6.980;2022-10-22T15:13:30;17.40;99.90
56184;DHT22;42086;53.170;6.980;2022-10-22T15:15:57;17.60;99.90
56184;DHT22;42086;53.170;6.980;2022-10-22T15:18:23;17.60;99.90
56184;DHT22;42086;53.170;6.980;2022-10-22T15:21:13;17.50;99.90
56184;DHT22;42086;53.170;6.980;2022-10-22T15:23:39;17.40;99.90
56184;DHT22;42086;53.170;6.980;2022-10-22T15:26:09;17.60;99.90
56184;DHT22;42086;53.170;6.980;2022-10-22T15:28:36;18.00;99.90
56184;DHT22;42086;53.170;6.980;2022-10-22T15:31:03;18.40;99.90
56184;DHT22;42086;53.170;6.980;2022-10-22T15:33:29;18.70;99.90
56184;DHT22;42086;53.170;6.980;2022-10-22T15:35:55;18.60;99.90
56184;DHT22;42086;53.170;6.980;2022-10-22T15:38:26;18.40;99.90
56184;DHT22;42086;53.170;6.980;2022-10-22T15:41:06;18.00;99.90
56184;DHT22;42086;53.170;6.980;2022-10-22T15:43:34;17.60;99.90
56184;DHT22;42086;53.170;6.980;2022-10-22T15:46:15;17.40;99.90
56184;DHT22;42086;53.170;6.980;2022-10-22T15:48:41;17.20;99.90
56184;DHT22;42086;53.170;6.980;2022-10-22T15:51:16;17.00;99.90
56184;DHT22;42086;53.170;6.980;2022-10-22T15:53:43;16.80;99.90
56184;DHT22;42086;53.170;6.980;2022-10-22T15:56:09;16.70;99.90
56184;DHT22;42086;53.170;6.980;2022-10-22T15:58:36;16.50;99.90
56184;DHT22;42086;53.170;6.980;2022-10-22T16:01:10;16.30;99.90
56184;DHT22;42086;53.170;6.980;2022-10-22T16:03:37;16.20;99.90
56184;DHT22;42086;53.170;6.980;2022-10-22T16:06:04;16.00;99.90
56184;DHT22;42086;53.170;6.980;2022-10-22T16:08:30;16.00;99.90
56184;DHT22;42086;53.170;6.980;2022-10-22T16:10:56;15.80;99.90
56184;DHT22;42086;53.170;6.980;2022-10-22T16:13:23;15.70;99.90
56184;DHT22;42086;53.170;6.980;2022-10-22T16:15:50;15.50;99.90
56184;DHT22;42086;53.170;6.980;2022-10-22T16:18:17;15.40;99.90
56184;DHT22;42086;53.170;6.980;2022-10-22T16:20:43;15.30;99.90
56184;DHT22;42086;53.170;6.980;2022-10-22T16:23:08;15.20;99.90
56184;DHT22;42086;53.170;6.980;2022-10-22T16:25:38;15.10;99.90
56184;DHT22;42086;53.170;6.980;2022-10-22T16:28:04;15.00;99.90
56184;DHT22;42086;53.170;6.980;2022-10-22T16:30:34;14.90;99.90
56184;DHT22;42086;53.170;6.980;2022-10-22T16:33:01;14.80;99.90
56184;DHT22;42086;53.170;6.980;2022-10-22T16:35:27;14.80;99.90
56184;DHT22;42086;53.170;6.980;2022-10-22T16:37:53;14.70;99.90
56184;DHT22;42086;53.170;6.980;2022-10-22T16:40:19;14.60;99.90
56184;DHT22;42086;53.170;6.980;2022-10-22T16:42:44;14.50;99.90
56184;DHT22;42086;53.170;6.980;2022-10-22T16:45:10;14.40;99.90
56184;DHT22;42086;53.170;6.980;2022-10-22T16:47:36;14.40;99.90
56184;DHT22;42086;53.170;6.980;2022-10-22T16:50:02;14.30;99.90
56184;DHT22;42086;53.170;6.980;2022-10-22T16:52:28;14.20;99.90
56184;DHT22;42086;53.170;6.980;2022-10-22T16:54:53;14.10;99.90
56184;DHT22;42086;53.170;6.980;2022-10-22T16:57:19;14.00;99.90
56184;DHT22;42086;53.170;6.980;2022-10-22T16:59:46;14.00;99.90
56184;DHT22;42086;53.170;6.980;2022-10-22T17:02:12;13.90;99.90
56184;DHT22;42086;53.170;6.980;2022-10-22T17:04:37;13.80;99.90
56184;DHT22;42086;53.170;6.980;2022-10-22T17:07:03;13.70;99.90
56184;DHT22;42086;53.170;6.980;2022-10-22T17:09:29;13.60;99.90
56184;DHT22;42086;53.170;6.980;2022-10-22T17:11:55;13.50;99.90
56184;DHT22;42086;53.170;6.980;2022-10-22T17:14:20;13.40;99.90
56184;DHT22;42086;53.170;6.980;2022-10-22T17:16:46;13.40;99.90
56184;DHT22;42086;53.170;6.980;2022-10-22T17:19:18;13.30;99.90
56184;DHT22;42086;53.170;6.980;2022-10-22T17:21:45;13.30;99.90
56184;DHT22;42086;53.170;6.980;2022-10-22T17:24:10;13.30;99.90
56184;DHT22;42086;53.170;6.980;2022-10-22T17:26:36;13.30;99.90
56184;DHT22;42086;53.170;6.980;2022-10-22T17:29:03;13.20;99.90
56184;DHT22;42086;53.170;6.980;2022-10-22T17:31:33;13.20;99.90
56184;DHT22;42086;53.170;6.980;2022-10-22T17:34:04;13.20;99.90
56184;DHT22;42086;53.170;6.980;2022-10-22T17:36:31;13.20;99.90
56184;DHT22;42086;53.170;6.980;2022-10-22T17:38:59;13.20;99.90
56184;DHT22;42086;53.170;6.980;2022-10-22T17:41:27;13.10;99.90
56184;DHT22;42086;53.170;6.980;2022-10-22T17:43:54;13.10;99.90
56184;DHT22;42086;53.170;6.980;2022-10-22T17:46:22;13.00;99.90
56184;DHT22;42086;53.170;6.980;2022-10-22T17:48:50;13.00;99.90
56184;DHT22;42086;53.170;6.980;2022-10-22T17:51:16;13.00;99.90
56184;DHT22;42086;53.170;6.980;2022-10-22T17:53:43;13.00;99.90
56184;DHT22;42086;53.170;6.980;2022-10-22T17:56:13;13.00;99.90
56184;DHT22;42086;53.170;6.980;2022-10-22T17:58:40;13.10;99.90
56184;DHT22;42086;53.170;6.980;2022-10-22T18:01:06;13.10;99.90
56184;DHT22;42086;53.170;6.980;2022-10-22T18:03:32;13.10;99.90
56184;DHT22;42086;53.170;6.980;2022-10-22T18:06:07;13.10;99.90
56184;DHT22;42086;53.170;6.980;2022-10-22T18:08:34;13.10;99.90
56184;DHT22;42086;53.170;6.980;2022-10-22T18:11:04;13.00;99.90
56184;DHT22;42086;53.170;6.980;2022-10-22T18:13:31;12.90;99.90
56184;DHT22;42086;53.170;6.980;2022-10-22T18:15:57;12.90;99.90
56184;DHT22;42086;53.170;6.980;2022-10-22T18:18:23;12.90;99.90
56184;DHT22;42086;53.170;6.980;2022-10-22T18:20:52;12.80;99.90
56184;DHT22;42086;53.170;6.980;2022-10-22T18:23:18;12.70;99.90
56184;DHT22;42086;53.170;6.980;2022-10-22T18:25:44;12.70;99.90
56184;DHT22;42086;53.170;6.980;2022-10-22T18:28:13;12.60;99.90
56184;DHT22;42086;53.170;6.980;2022-10-22T18:30:39;12.60;99.90
56184;DHT22;42086;53.170;6.980;2022-10-22T18:33:10;12.50;99.90
56184;DHT22;42086;53.170;6.980;2022-10-22T18:35:36;12.50;99.90
56184;DHT22;42086;53.170;6.980;2022-10-22T18:38:02;12.50;99.90
56184;DHT22;42086;53.170;6.980;2022-10-22T18:40:27;12.40;99.90
56184;DHT22;42086;53.170;6.980;2022-10-22T18:42:56;12.30;99.90
56184;DHT22;42086;53.170;6.980;2022-10-22T18:45:21;12.20;99.90
56184;DHT22;42086;53.170;6.980;2022-10-22T18:47:47;12.10;99.90
56184;DHT22;42086;53.170;6.980;2022-10-22T18:50:13;12.10;99.90
56184;DHT22;42086;53.170;6.980;2022-10-22T18:52:39;12.10;99.90